createdAt,value
2019-05-29T00:01:16.118Z,11.80
2019-05-29T00:03:42.666Z,11.70
2019-05-29T00:06:12.559Z,11.70
2019-05-29T00:08:42.234Z,11.70
2019-05-29T00:11:12.258Z,11.70
2019-05-29T00:13:42.664Z,11.60
2019-05-29T00:16:12.463Z,11.60
2019-05-29T00:18:42.312Z,11.60
2019-05-29T00:21:13.089Z,11.60
2019-05-29T00:23:43.853Z,11.50
2019-05-29T00:26:14.578Z,11.50
2019-05-29T00:28:44.432Z,11.50
2019-05-29T00:31:14.110Z,11.50
2019-05-29T00:33:46.190Z,11.50
2019-05-29T00:36:16.522Z,11.50
2019-05-29T00:38:46.399Z,11.50
2019-05-29T00:41:17.136Z,11.50
2019-05-29T00:43:48.731Z,11.40
2019-05-29T00:46:18.784Z,11.40
2019-05-29T00:48:51.140Z,11.40
2019-05-29T00:51:20.824Z,11.40
2019-05-29T00:53:51.768Z,11.30
2019-05-29T00:56:22.522Z,11.30
2019-05-29T00:58:54.788Z,11.30
2019-05-29T01:01:29.824Z,11.30
2019-05-29T01:04:01.771Z,11.40
2019-05-29T01:06:33.134Z,11.40
2019-05-29T01:09:03.298Z,11.40
2019-05-29T01:11:32.967Z,11.40
2019-05-29T01:14:05.193Z,11.30
2019-05-29T01:16:35.033Z,11.50
2019-05-29T01:19:22.847Z,11.50
2019-05-29T01:21:54.934Z,11.50
2019-05-29T01:24:28.024Z,11.40
2019-05-29T01:26:59.268Z,11.40
2019-05-29T01:29:28.960Z,11.40
2019-05-29T01:32:01.241Z,11.40
2019-05-29T01:34:30.889Z,11.30
2019-05-29T01:37:00.595Z,11.30
2019-05-29T01:39:30.260Z,11.30
2019-05-29T01:42:01.518Z,11.30
2019-05-29T01:44:32.740Z,11.30
2019-05-29T01:47:03.769Z,11.20
2019-05-29T01:49:35.140Z,11.20
2019-05-29T01:52:06.538Z,11.20
2019-05-29T01:54:36.222Z,11.20
2019-05-29T01:57:07.211Z,11.20
2019-05-29T01:59:37.189Z,11.20
2019-05-29T02:02:06.846Z,11.20
2019-05-29T02:04:39.406Z,11.20
2019-05-29T02:07:09.116Z,11.20
2019-05-29T02:09:39.760Z,11.10
2019-05-29T02:12:09.566Z,11.10
2019-05-29T02:14:39.262Z,11.10
2019-05-29T02:17:08.956Z,11.10
2019-05-29T02:19:38.698Z,11.10
2019-05-29T02:22:08.872Z,11.10
2019-05-29T02:24:40.202Z,11.10
2019-05-29T02:27:10.277Z,11.10
2019-05-29T02:29:41.099Z,11.10
2019-05-29T02:32:10.790Z,11.10
2019-05-29T02:34:43.004Z,11.10
2019-05-29T02:37:12.761Z,11.00
2019-05-29T02:39:44.276Z,11.00
2019-05-29T02:42:13.968Z,11.00
2019-05-29T02:44:43.629Z,11.00
2019-05-29T02:47:13.309Z,11.00
2019-05-29T02:49:45.522Z,10.90
2019-05-29T02:52:15.213Z,10.90
2019-05-29T02:54:44.900Z,10.90
2019-05-29T02:57:14.568Z,10.90
2019-05-29T02:59:45.702Z,10.80
2019-05-29T03:02:15.343Z,10.80
2019-05-29T03:04:45.009Z,10.80
2019-05-29T03:07:14.708Z,10.80
2019-05-29T03:09:44.958Z,10.80
2019-05-29T03:12:14.693Z,10.70
2019-05-29T03:14:44.949Z,10.70
2019-05-29T03:17:14.616Z,10.70
2019-05-29T03:19:44.284Z,10.70
2019-05-29T03:22:24.049Z,10.70
2019-05-29T03:24:54.082Z,10.60
2019-05-29T03:27:23.784Z,10.60
2019-05-29T03:29:53.466Z,10.60
2019-05-29T03:32:23.152Z,10.60
2019-05-29T03:34:54.311Z,10.60
2019-05-29T03:37:26.250Z,10.60
2019-05-29T03:39:56.287Z,10.60
2019-05-29T03:42:26.403Z,10.60
2019-05-29T03:44:56.120Z,10.50
2019-05-29T03:47:29.371Z,10.50
2019-05-29T03:50:00.349Z,10.50
2019-05-29T03:52:30.323Z,10.50
2019-05-29T03:55:00.039Z,10.50
2019-05-29T03:57:31.391Z,10.50
2019-05-29T04:00:01.144Z,10.50
2019-05-29T04:02:33.304Z,10.50
2019-05-29T04:05:03.761Z,10.50
2019-05-29T04:07:34.077Z,10.50
2019-05-29T04:10:07.899Z,10.50
2019-05-29T04:12:38.893Z,10.50
2019-05-29T04:15:09.068Z,10.50
2019-05-29T04:17:41.415Z,10.60
2019-05-29T04:20:11.486Z,10.60
2019-05-29T04:22:45.008Z,10.60
2019-05-29T04:25:39.743Z,10.70
2019-05-29T04:28:09.089Z,10.70
2019-05-29T04:30:39.472Z,10.70
2019-05-29T04:33:09.561Z,10.70
2019-05-29T04:35:39.812Z,10.80
2019-05-29T04:38:09.786Z,10.80
2019-05-29T04:40:39.855Z,10.90
2019-05-29T04:43:11.119Z,10.90
2019-05-29T04:45:40.809Z,11.00
2019-05-29T04:48:10.490Z,11.00
2019-05-29T04:50:42.177Z,11.10
2019-05-29T04:53:13.449Z,11.20
2019-05-29T04:55:43.135Z,11.30
2019-05-29T04:58:12.793Z,11.40
2019-05-29T05:00:58.097Z,11.50
2019-05-29T05:03:15.024Z,11.50
2019-05-29T05:05:44.676Z,11.60
2019-05-29T05:08:14.365Z,11.80
2019-05-29T05:10:44.365Z,11.90
2019-05-29T05:13:14.040Z,12.00
2019-05-29T05:15:47.143Z,12.10
2019-05-29T05:18:16.833Z,12.20
2019-05-29T05:20:46.523Z,12.30
2019-05-29T05:23:16.292Z,12.40
2019-05-29T05:25:46.014Z,12.50
2019-05-29T05:28:15.818Z,12.60
2019-05-29T05:30:45.536Z,12.70
2019-05-29T05:33:15.250Z,12.80
2019-05-29T05:35:44.917Z,12.90
2019-05-29T05:38:14.693Z,13.00
2019-05-29T05:40:44.777Z,13.20
2019-05-29T05:43:23.583Z,13.30
2019-05-29T05:45:47.500Z,13.40
2019-05-29T05:48:18.902Z,13.50
2019-05-29T05:50:48.565Z,13.50
2019-05-29T05:53:18.407Z,13.60
2019-05-29T05:55:49.353Z,13.70
2019-05-29T05:58:20.781Z,13.80
2019-05-29T06:00:50.746Z,13.80
2019-05-29T06:03:20.475Z,13.90
2019-05-29T06:05:50.127Z,14.00
2019-05-29T06:08:19.834Z,14.10
2019-05-29T06:10:51.306Z,14.10
2019-05-29T06:13:20.920Z,14.20
2019-05-29T06:15:50.817Z,14.30
2019-05-29T06:18:21.911Z,14.40
2019-05-29T06:20:53.731Z,14.50
2019-05-29T06:23:23.429Z,14.60
2019-05-29T06:25:53.137Z,14.80
2019-05-29T06:28:23.484Z,14.90
2019-05-29T06:30:54.654Z,15.00
2019-05-29T06:33:24.351Z,15.20
2019-05-29T06:35:54.036Z,15.30
2019-05-29T06:38:23.706Z,15.40
2019-05-29T06:40:53.416Z,15.50
2019-05-29T06:43:25.322Z,15.50
2019-05-29T06:45:56.852Z,15.70
2019-05-29T06:48:43.157Z,15.80
2019-05-29T06:51:02.065Z,16.00
2019-05-29T06:53:31.742Z,16.10
2019-05-29T06:56:04.115Z,16.30
2019-05-29T06:58:33.959Z,16.40
2019-05-29T07:01:03.627Z,16.60
2019-05-29T07:03:33.319Z,16.70
2019-05-29T07:06:03.059Z,16.90
2019-05-29T07:08:38.678Z,17.00
2019-05-29T07:11:05.146Z,17.10
2019-05-29T07:13:36.114Z,17.30
2019-05-29T07:16:07.558Z,17.40
2019-05-29T07:18:38.469Z,17.50
2019-05-29T07:21:08.731Z,17.60
2019-05-29T07:23:38.768Z,17.70
2019-05-29T07:26:08.562Z,17.80
2019-05-29T07:28:58.872Z,17.90
2019-05-29T07:31:10.918Z,18.00
2019-05-29T07:33:43.234Z,18.00
2019-05-29T07:36:13.079Z,18.10
2019-05-29T07:38:46.023Z,18.20
2019-05-29T07:41:14.308Z,18.30
2019-05-29T07:43:44.066Z,18.30
2019-05-29T07:46:13.737Z,18.30
2019-05-29T07:48:47.451Z,18.40
2019-05-29T07:51:14.815Z,18.40
2019-05-29T07:53:44.508Z,18.50
2019-05-29T07:56:22.549Z,18.60
2019-05-29T07:58:56.754Z,18.60
2019-05-29T08:01:17.361Z,18.60
2019-05-29T08:03:47.523Z,18.70
2019-05-29T08:06:17.343Z,18.60
2019-05-29T08:08:47.471Z,18.60
2019-05-29T08:11:18.978Z,18.60
2019-05-29T08:13:49.878Z,18.70
2019-05-29T08:16:19.954Z,18.70
2019-05-29T08:18:53.062Z,18.70
2019-05-29T08:21:22.502Z,18.70
2019-05-29T08:23:52.256Z,18.80
2019-05-29T08:26:21.970Z,18.80
2019-05-29T08:28:53.408Z,18.90
2019-05-29T08:31:23.083Z,19.00
2019-05-29T08:33:54.253Z,19.10
2019-05-29T08:36:23.935Z,19.20
2019-05-29T08:38:53.415Z,19.40
2019-05-29T08:41:23.106Z,19.50
2019-05-29T08:43:52.985Z,19.60
2019-05-29T08:46:22.894Z,19.70
2019-05-29T08:48:52.593Z,19.70
2019-05-29T08:51:22.857Z,19.80
2019-05-29T08:53:54.667Z,19.90
2019-05-29T08:56:24.250Z,20.00
2019-05-29T08:58:53.931Z,20.00
2019-05-29T09:01:23.583Z,20.10
2019-05-29T09:03:53.693Z,20.20
2019-05-29T09:06:23.920Z,20.30
2019-05-29T09:08:55.233Z,20.40
2019-05-29T09:11:24.944Z,20.50
2019-05-29T09:13:54.720Z,20.50
2019-05-29T09:16:24.499Z,20.60
2019-05-29T09:18:54.969Z,20.60
2019-05-29T09:21:27.367Z,20.70
2019-05-29T09:23:58.786Z,20.70
2019-05-29T09:26:28.439Z,20.80
2019-05-29T09:28:58.152Z,20.90
2019-05-29T09:31:29.275Z,20.90
2019-05-29T09:33:58.952Z,21.00
2019-05-29T09:36:29.490Z,21.10
2019-05-29T09:38:59.409Z,21.10
2019-05-29T09:41:29.102Z,21.20
2019-05-29T09:44:00.336Z,21.30
2019-05-29T09:46:30.242Z,21.40
2019-05-29T09:49:01.651Z,21.40
2019-05-29T09:51:31.619Z,21.50
2019-05-29T09:54:01.910Z,21.60
2019-05-29T09:56:32.763Z,21.70
2019-05-29T09:59:03.814Z,21.80
2019-05-29T10:01:33.728Z,21.80
2019-05-29T10:04:06.086Z,21.80
2019-05-29T10:06:34.868Z,21.80
2019-05-29T10:09:07.831Z,21.80
2019-05-29T10:11:38.006Z,21.80
2019-05-29T10:14:07.717Z,21.80
2019-05-29T10:16:39.310Z,21.80
2019-05-29T10:19:08.973Z,21.80
2019-05-29T10:21:41.029Z,21.70
2019-05-29T10:24:11.702Z,21.70
2019-05-29T10:26:41.507Z,21.70
2019-05-29T10:29:11.371Z,21.60
2019-05-29T10:31:42.134Z,21.50
2019-05-29T10:34:12.274Z,21.40
2019-05-29T10:36:42.416Z,21.40
2019-05-29T10:39:13.165Z,21.30
2019-05-29T10:41:44.733Z,21.30
2019-05-29T10:44:14.871Z,21.30
2019-05-29T10:46:47.729Z,21.30
2019-05-29T10:49:15.978Z,21.30
2019-05-29T10:52:01.584Z,21.30
2019-05-29T10:54:17.108Z,21.20
2019-05-29T10:56:46.963Z,21.20
2019-05-29T10:59:18.481Z,21.10
2019-05-29T11:01:49.211Z,21.10
2019-05-29T11:04:19.200Z,21.00
2019-05-29T11:06:50.165Z,20.90
2019-05-29T11:09:22.161Z,20.80
2019-05-29T11:11:55.256Z,20.70
2019-05-29T11:14:26.043Z,20.60
2019-05-29T11:16:57.639Z,20.60
2019-05-29T11:19:27.553Z,20.40
2019-05-29T11:22:04.574Z,20.30
2019-05-29T11:24:28.685Z,20.20
2019-05-29T11:26:59.029Z,20.20
2019-05-29T11:29:28.986Z,20.10
2019-05-29T11:31:59.012Z,20.10
2019-05-29T11:34:28.844Z,20.20
2019-05-29T11:36:58.516Z,20.30
2019-05-29T11:39:28.184Z,20.30
2019-05-29T11:41:58.908Z,20.30
2019-05-29T11:44:29.536Z,20.20
2019-05-29T11:46:59.238Z,20.10
2019-05-29T11:49:28.946Z,20.00
2019-05-29T11:52:19.662Z,19.90
2019-05-29T11:54:29.834Z,19.90
2019-05-29T11:56:59.597Z,19.80
2019-05-29T12:07:28.969Z,19.40
2019-05-29T12:09:59.571Z,19.40
2019-05-29T12:12:29.500Z,19.40
2019-05-29T12:15:09.804Z,19.40
2019-05-29T12:17:30.603Z,19.40
2019-05-29T12:20:02.374Z,19.40
2019-05-29T12:22:33.282Z,18.70
2019-05-29T12:25:03.125Z,19.30
2019-05-29T12:27:33.055Z,19.30
2019-05-29T12:30:03.283Z,19.20
2019-05-29T12:32:33.122Z,19.20
2019-05-29T12:35:03.138Z,19.20
2019-05-29T12:37:32.858Z,19.10
2019-05-29T12:40:03.684Z,19.10
2019-05-29T12:42:33.628Z,19.00
2019-05-29T12:45:04.956Z,18.90
2019-05-29T12:47:34.634Z,18.90
2019-05-29T12:50:12.625Z,18.90
2019-05-29T12:52:43.120Z,18.80
2019-05-29T12:55:15.668Z,18.80
2019-05-29T12:57:46.852Z,18.80
2019-05-29T13:00:19.511Z,18.80
2019-05-29T13:02:49.184Z,18.80
2019-05-29T13:05:20.936Z,18.70
2019-05-29T13:07:51.047Z,18.60
2019-05-29T13:10:30.790Z,18.50
2019-05-29T13:13:02.465Z,18.30
2019-05-29T13:15:28.776Z,18.10
2019-05-29T13:18:05.406Z,17.90
2019-05-29T13:20:29.876Z,17.80
2019-05-29T13:22:59.958Z,17.70
2019-05-29T13:25:30.185Z,17.60
2019-05-29T13:28:01.578Z,17.60
2019-05-29T13:30:33.104Z,17.50
2019-05-29T13:33:07.397Z,17.50
2019-05-29T13:35:36.225Z,17.40
2019-05-29T13:38:07.238Z,17.30
2019-05-29T13:40:37.948Z,17.30
2019-05-29T13:43:15.138Z,17.20
2019-05-29T13:45:39.255Z,17.10
2019-05-29T13:48:10.131Z,17.00
2019-05-29T13:50:39.826Z,16.90
2019-05-29T13:53:09.528Z,16.90
2019-05-29T13:55:39.208Z,16.80
2019-05-29T13:58:09.407Z,16.80
2019-05-29T14:00:39.260Z,16.80
2019-05-29T14:03:09.337Z,16.70
2019-05-29T14:05:39.506Z,16.70
2019-05-29T14:08:09.316Z,16.70
2019-05-29T14:10:39.225Z,16.70
2019-05-29T14:13:09.355Z,16.70
2019-05-29T14:15:39.335Z,16.70
2019-05-29T14:18:09.454Z,16.70
2019-05-29T14:20:39.167Z,16.70
2019-05-29T14:23:09.615Z,16.70
2019-05-29T14:25:39.622Z,16.70
2019-05-29T14:28:09.622Z,16.70
2019-05-29T14:30:39.467Z,16.70
2019-05-29T14:33:14.918Z,16.70
2019-05-29T14:35:43.452Z,16.70
2019-05-29T14:38:15.056Z,16.80
2019-05-29T14:40:46.016Z,16.80
2019-05-29T14:43:15.873Z,16.80
2019-05-29T14:45:45.673Z,16.80
2019-05-29T14:48:15.434Z,16.80
2019-05-29T14:50:45.140Z,16.90
2019-05-29T14:53:14.823Z,16.90
2019-05-29T14:55:44.509Z,16.90
2019-05-29T14:58:14.237Z,17.00
2019-05-29T15:00:44.226Z,17.00
2019-05-29T15:03:13.909Z,17.00
2019-05-29T15:05:44.188Z,17.00
2019-05-29T15:08:14.299Z,16.90
2019-05-29T15:10:45.853Z,17.10
2019-05-29T15:13:15.661Z,17.10
2019-05-29T15:15:46.150Z,17.10
2019-05-29T15:18:18.714Z,17.10
2019-05-29T15:20:47.259Z,17.10
2019-05-29T15:23:21.145Z,17.10
2019-05-29T15:25:51.964Z,17.10
2019-05-29T15:28:21.756Z,17.00
2019-05-29T15:30:51.647Z,16.90
2019-05-29T15:33:21.303Z,16.90
2019-05-29T15:35:51.048Z,16.90
2019-05-29T15:38:20.833Z,16.80
2019-05-29T15:40:50.524Z,16.90
2019-05-29T15:43:20.403Z,16.80
2019-05-29T15:45:50.137Z,16.80
2019-05-29T15:48:19.875Z,16.80
2019-05-29T15:50:50.467Z,16.80
2019-05-29T15:53:20.173Z,16.90
2019-05-29T15:55:49.844Z,16.90
2019-05-29T15:58:19.554Z,16.90
2019-05-29T16:00:49.620Z,16.80
2019-05-29T16:03:19.921Z,16.90
2019-05-29T16:05:49.727Z,16.90
2019-05-29T16:08:19.572Z,16.90
2019-05-29T16:10:53.180Z,16.90
2019-05-29T16:13:26.730Z,16.90
2019-05-29T16:15:57.515Z,16.90
2019-05-29T16:18:29.765Z,16.90
2019-05-29T16:21:02.525Z,17.00
2019-05-29T16:23:35.997Z,17.00
2019-05-29T16:26:06.082Z,17.00
2019-05-29T16:28:37.357Z,17.00
2019-05-29T16:31:07.846Z,17.10
2019-05-29T16:33:38.930Z,17.00
2019-05-29T16:36:09.619Z,17.10
2019-05-29T16:38:40.142Z,17.10
2019-05-29T16:41:14.136Z,17.10
2019-05-29T16:43:45.064Z,17.10
2019-05-29T16:46:20.567Z,17.10
2019-05-29T16:48:50.975Z,17.10
2019-05-29T16:51:23.046Z,17.10
2019-05-29T16:53:53.705Z,17.10
2019-05-29T16:56:24.425Z,17.10
2019-05-29T16:58:55.491Z,17.10
2019-05-29T17:01:26.252Z,17.20
2019-05-29T17:03:57.168Z,17.20
2019-05-29T17:06:26.949Z,17.20
2019-05-29T17:08:56.622Z,17.20
2019-05-29T17:11:26.309Z,17.30
2019-05-29T17:13:55.996Z,17.30
2019-05-29T17:16:25.655Z,17.30
2019-05-29T17:18:55.894Z,17.40
2019-05-29T17:21:27.238Z,17.40
2019-05-29T17:23:56.917Z,17.40
2019-05-29T17:26:26.595Z,17.40
2019-05-29T17:28:56.414Z,17.40
2019-05-29T17:31:26.095Z,17.50
2019-05-29T17:33:55.871Z,17.50
2019-05-29T17:36:28.633Z,17.50
2019-05-29T17:38:57.161Z,17.60
2019-05-29T17:41:27.059Z,17.60
2019-05-29T17:43:57.235Z,17.60
2019-05-29T17:46:26.974Z,17.70
2019-05-29T17:49:00.316Z,17.70
2019-05-29T17:51:30.025Z,17.70
2019-05-29T17:54:00.036Z,17.80
2019-05-29T17:56:36.686Z,17.80
2019-05-29T17:59:01.206Z,17.80
2019-05-29T18:01:31.093Z,17.90
2019-05-29T18:04:01.118Z,17.90
2019-05-29T18:06:30.856Z,17.90
2019-05-29T18:09:00.539Z,18.00
2019-05-29T18:11:30.244Z,18.00
2019-05-29T18:14:03.854Z,18.10
2019-05-29T18:16:31.424Z,18.10
2019-05-29T18:19:01.131Z,18.10
2019-05-29T18:21:30.852Z,18.20
2019-05-29T18:24:00.519Z,18.20
2019-05-29T18:26:45.920Z,18.30
2019-05-29T18:29:01.735Z,18.30
2019-05-29T18:31:31.389Z,18.30
2019-05-29T18:34:01.104Z,18.40
2019-05-29T18:36:31.498Z,18.40
2019-05-29T18:39:01.573Z,18.40
2019-05-29T18:41:32.474Z,18.50
2019-05-29T18:44:02.311Z,18.50
2019-05-29T18:46:37.595Z,18.50
2019-05-29T18:49:05.324Z,18.50
2019-05-29T18:51:35.009Z,18.50
2019-05-29T18:54:04.691Z,18.60
2019-05-29T18:56:34.404Z,18.60
2019-05-29T18:59:05.671Z,18.60
2019-05-29T19:01:35.356Z,18.70
2019-05-29T19:04:06.051Z,18.70
2019-05-29T19:06:36.154Z,18.70
2019-05-29T19:09:08.604Z,18.80
2019-05-29T19:11:40.021Z,18.80
2019-05-29T19:14:09.781Z,18.80
2019-05-29T19:16:39.772Z,18.80
2019-05-29T19:19:09.864Z,18.80
2019-05-29T19:21:39.514Z,18.80
2019-05-29T19:24:09.209Z,18.70
2019-05-29T19:26:38.923Z,18.70
2019-05-29T19:29:08.690Z,18.70
2019-05-29T19:31:42.280Z,18.70
2019-05-29T19:34:11.580Z,18.70
2019-05-29T19:36:41.343Z,18.70
2019-05-29T19:39:11.096Z,18.60
2019-05-29T19:41:40.805Z,18.60
2019-05-29T19:44:10.475Z,18.60
2019-05-29T19:46:53.189Z,18.60
2019-05-29T19:49:11.628Z,18.60
2019-05-29T19:51:41.913Z,18.60
2019-05-29T19:54:11.612Z,18.60
2019-05-29T19:56:41.417Z,18.60
2019-05-29T19:59:11.061Z,18.50
2019-05-29T20:01:40.815Z,18.50
2019-05-29T20:04:10.530Z,18.40
2019-05-29T20:06:40.881Z,18.40
2019-05-29T20:09:10.583Z,18.30
2019-05-29T20:11:40.480Z,18.30
2019-05-29T20:14:10.159Z,18.30
2019-05-29T20:16:39.922Z,18.30
2019-05-29T20:19:09.925Z,18.20
2019-05-29T20:21:39.620Z,18.20
2019-05-29T20:24:09.322Z,18.20
2019-05-29T20:26:41.392Z,18.20
2019-05-29T20:29:11.536Z,18.20
2019-05-29T20:31:41.260Z,18.10
2019-05-29T20:34:10.956Z,18.10
2019-05-29T20:36:41.726Z,18.10
2019-05-29T20:39:11.390Z,18.00
2019-05-29T20:41:43.239Z,18.00
2019-05-29T20:44:12.554Z,18.00
2019-05-29T20:46:42.777Z,18.00
2019-05-29T20:49:12.597Z,18.00
2019-05-29T20:51:42.382Z,17.90
2019-05-29T20:54:12.110Z,17.90
2019-05-29T20:56:43.491Z,17.90
2019-05-29T20:59:13.134Z,17.90
2019-05-29T21:01:46.039Z,17.90
2019-05-29T21:04:14.260Z,17.70
2019-05-29T21:06:43.951Z,17.80
2019-05-29T21:09:13.844Z,17.80
2019-05-29T21:11:43.681Z,17.80
2019-05-29T21:14:13.814Z,17.70
2019-05-29T21:16:44.784Z,17.70
2019-05-29T21:19:14.499Z,17.70
2019-05-29T21:21:47.178Z,17.60
2019-05-29T21:24:16.931Z,17.60
2019-05-29T21:26:47.356Z,17.60
2019-05-29T21:29:17.129Z,17.60
2019-05-29T21:31:46.884Z,17.60
2019-05-29T21:34:16.701Z,17.40
2019-05-29T21:36:46.485Z,17.60
2019-05-29T21:39:16.362Z,17.60
2019-05-29T21:41:46.735Z,17.60
2019-05-29T21:44:16.607Z,17.50
2019-05-29T21:46:47.241Z,17.50
2019-05-29T21:49:18.272Z,17.50
2019-05-29T21:51:49.611Z,17.50
2019-05-29T21:54:19.385Z,17.40
2019-05-29T21:56:50.189Z,17.40
2019-05-29T21:59:21.511Z,17.40
2019-05-29T22:01:51.319Z,17.40
2019-05-29T22:04:21.016Z,17.40
2019-05-29T22:06:53.893Z,17.40
2019-05-29T22:09:25.968Z,17.40
2019-05-29T22:12:00.514Z,17.40
2019-05-29T22:14:30.231Z,17.40
2019-05-29T22:17:00.948Z,17.40
2019-05-29T22:19:31.575Z,17.40
2019-05-29T22:22:01.393Z,17.40
2019-05-29T22:24:31.248Z,17.40
2019-05-29T22:27:01.542Z,17.40
2019-05-29T22:29:31.570Z,17.40
2019-05-29T22:32:01.639Z,17.40
2019-05-29T22:34:31.489Z,17.40
2019-05-29T22:37:02.602Z,17.40
2019-05-29T22:39:33.760Z,17.40
2019-05-29T22:42:04.315Z,17.40
2019-05-29T22:44:35.748Z,17.40
2019-05-29T22:47:05.522Z,17.40
2019-05-29T22:49:35.348Z,17.40
2019-05-29T22:52:05.143Z,17.40
2019-05-29T22:54:34.848Z,17.40
2019-05-29T22:57:04.597Z,17.40
2019-05-29T22:59:34.268Z,17.40
2019-05-29T23:02:07.146Z,17.50
2019-05-29T23:04:38.082Z,17.50
2019-05-29T23:07:09.224Z,17.50
2019-05-29T23:09:39.000Z,17.50
2019-05-29T23:12:08.791Z,17.50
2019-05-29T23:14:39.901Z,17.50
2019-05-29T23:17:10.843Z,17.60
2019-05-29T23:19:40.541Z,17.60
2019-05-29T23:22:11.615Z,17.60
2019-05-29T23:24:41.395Z,17.70
2019-05-29T23:27:11.066Z,17.70
2019-05-29T23:29:48.880Z,17.70
2019-05-29T23:32:13.605Z,17.70
2019-05-29T23:34:43.299Z,17.70
2019-05-29T23:37:16.919Z,17.70
2019-05-29T23:39:46.653Z,17.70
2019-05-29T23:42:17.980Z,17.70
2019-05-29T23:44:51.938Z,17.70
2019-05-29T23:47:20.227Z,17.70
2019-05-29T23:49:51.076Z,17.70
2019-05-29T23:52:20.747Z,17.70
2019-05-29T23:54:50.551Z,17.70
2019-05-29T23:57:20.367Z,17.70
